Time;durP1;ratioP1;P1;durP2;ratioP2;P2;SDS_P1;SDS_P2;PMS_P1;PMS_P2;Temp;Humidity;BMP_temperature;BMP_pressure;BME280_temperature;BME280_humidity;BME280_pressure;Samples;Min_cycle;Max_cycle;Signal;HPM_P1;HPM_P2
2021/08/06 00:02:18;;;;;;;;;2.00;1.25;;;;;20.12;100.00;100117.13;5118240;27;46106;-66
2021/08/06 00:04:44;;;;;;;;;4.00;0.00;;;;;20.09;100.00;100122.63;5117944;27;45356;-66
2021/08/06 00:07:11;;;;;;;;;2.50;2.00;;;;;20.05;100.00;100131.72;5118297;27;45411;-66
2021/08/06 00:09:38;;;;;;;;;1.50;1.50;;;;;20.03;100.00;100122.19;5118520;27;45427;-66
2021/08/06 00:12:05;;;;;;;;;2.00;1.25;;;;;19.89;100.00;100110.63;5118195;27;46369;-66
2021/08/06 00:14:31;;;;;;;;;2.00;1.00;;;;;19.94;100.00;100114.81;5119404;27;45425;-66
2021/08/06 00:16:56;;;;;;;;;1.00;1.00;;;;;19.97;100.00;100126.06;5121955;27;45295;-66
2021/08/06 00:19:22;;;;;;;;;2.25;1.25;;;;;19.95;100.00;100119.16;5121974;27;45264;-66
2021/08/06 00:21:47;;;;;;;;;4.00;2.00;;;;;19.91;100.00;100125.59;5121398;27;46166;-66
2021/08/06 00:24:13;;;;;;;;;2.00;2.00;;;;;19.83;100.00;100121.63;5121698;27;45373;-66
2021/08/06 00:30:00;;;;;;;;;1.50;1.50;;;;;19.84;100.00;100112.72;5121479;27;45281;-66
2021/08/06 00:32:26;;;;;;;;;4.50;1.75;;;;;19.89;100.00;100117.75;5121555;27;46378;-66
2021/08/06 00:34:51;;;;;;;;;1.00;0.00;;;;;19.84;100.00;100120.69;5121231;27;45372;-66
2021/08/06 00:37:16;;;;;;;;;2.00;1.25;;;;;19.67;100.00;100096.19;5121558;27;45586;-66
2021/08/06 00:39:42;;;;;;;;;2.75;2.00;;;;;19.82;100.00;100119.94;5121586;27;45259;-66
2021/08/06 00:42:07;;;;;;;;;1.00;1.00;;;;;19.84;100.00;100128.63;5121016;27;47302;-66
2021/08/06 00:44:32;;;;;;;;;3.00;2.00;;;;;19.90;100.00;100124.72;5121317;27;45208;-66
2021/08/06 00:46:58;;;;;;;;;2.00;1.00;;;;;19.82;100.00;100119.94;5121424;27;45515;-66
2021/08/06 00:49:23;;;;;;;;;2.50;2.00;;;;;19.81;100.00;100117.38;5121518;27;45336;-66
2021/08/06 00:51:49;;;;;;;;;4.00;1.00;;;;;19.90;100.00;100143.28;5121147;27;45420;-66
2021/08/06 00:54:17;;;;;;;;;1.75;1.75;;;;;19.79;100.00;100117.47;5120873;27;45349;-66
2021/08/06 01:00:05;;;;;;;;;2.25;2.00;;;;;19.84;100.00;100133.06;5120706;27;45291;-66
2021/08/06 01:02:53;;;;;;;;;1.75;1.00;;;;;19.86;100.00;100129.38;5120389;27;48067;-66
2021/08/06 01:05:25;;;;;;;;;1.00;1.00;;;;;19.85;100.00;100134.78;5120568;27;45415;-67
2021/08/06 01:08:09;;;;;;;;;1.75;1.75;;;;;19.91;100.00;100133.53;5121161;27;45321;-66
2021/08/06 01:10:55;;;;;;;;;1.00;1.00;;;;;19.76;100.00;100109.72;5121159;27;45360;-66
2021/08/06 01:13:32;;;;;;;;;2.75;1.25;;;;;19.89;100.00;100131.84;5120882;27;45384;-66
2021/08/06 01:16:01;;;;;;;;;2.00;2.00;;;;;19.89;100.00;100134.47;5120500;27;45326;-66
2021/08/06 01:18:31;;;;;;;;;1.75;1.75;;;;;19.85;100.00;100124.19;5120697;27;45285;-66
2021/08/06 01:21:03;;;;;;;;;2.00;2.00;;;;;19.85;100.00;100129.47;5120823;27;45348;-67
2021/08/06 01:23:38;;;;;;;;;3.00;1.50;;;;;19.84;100.00;100128.63;5120383;27;46627;-66
2021/08/06 01:26:03;;;;;;;;;2.00;1.00;;;;;19.89;100.00;100128.34;5120123;27;45542;-66
2021/08/06 01:28:50;;;;;;;;;0.00;0.00;;;;;19.89;100.00;100120.38;5120853;27;45465;-66
2021/08/06 01:31:27;;;;;;;;;1.50;1.50;;;;;19.87;100.00;100117.84;5120801;27;45348;-66
2021/08/06 01:33:52;;;;;;;;;4.00;2.00;;;;;19.85;100.00;100122.38;5120299;27;45623;-67
2021/08/06 01:36:17;;;;;;;;;2.75;2.25;;;;;19.86;100.00;100126.72;5120134;27;45408;-66
2021/08/06 01:38:44;;;;;;;;;2.00;2.00;;;;;19.87;100.00;100123.13;5120758;27;45454;-66
2021/08/06 01:41:42;;;;;;;;;2.25;2.00;;;;;19.88;100.00;100139.88;5120483;27;45527;-66
2021/08/06 01:44:15;;;;;;;;;2.00;1.75;;;;;19.85;100.00;100118.88;5119925;27;45446;-66
2021/08/06 01:47:11;;;;;;;;;2.00;1.00;;;;;19.84;100.00;100127.78;5119945;27;45619;-66
2021/08/06 01:49:48;;;;;;;;;3.50;2.50;;;;;19.81;100.00;100128.81;5101612;27;45383;-66
2021/08/06 01:52:27;;;;;;;;;3.50;1.00;;;;;19.81;100.00;100123.53;5120244;27;45602;-66
2021/08/06 01:54:54;;;;;;;;;1.25;1.25;;;;;19.76;100.00;100122.97;5120112;27;45571;-66
2021/08/06 01:57:21;;;;;;;;;1.25;1.25;;;;;19.77;100.00;100134.41;5119848;27;45479;-65
2021/08/06 01:59:48;;;;;;;;;2.25;2.00;;;;;19.73;100.00;100115.22;5101675;27;45372;-65
2021/08/06 02:02:14;;;;;;;;;3.50;2.25;;;;;19.81;100.00;100127.97;5120416;27;45305;-66
2021/08/06 02:04:40;;;;;;;;;2.00;2.00;;;;;19.79;100.00;100127.22;5120117;27;45446;-65
2021/08/06 02:07:06;;;;;;;;;0.00;0.00;;;;;19.75;100.00;100113.31;5119695;27;45388;-66
2021/08/06 02:09:35;;;;;;;;;1.25;1.00;;;;;19.77;100.00;100123.81;5120096;27;45403;-66
2021/08/06 02:12:01;;;;;;;;;2.75;2.00;;;;;19.75;100.00;100120.41;5120105;27;45276;-66
2021/08/06 02:14:26;;;;;;;;;2.00;2.00;;;;;19.71;100.00;100121.56;5119811;27;45838;-66
2021/08/06 02:16:53;;;;;;;;;2.00;2.00;;;;;19.78;100.00;100130.81;5119974;27;45354;-66
2021/08/06 02:19:22;;;;;;;;;2.00;1.00;;;;;19.74;100.00;100132.81;5119688;27;45464;-65
2021/08/06 02:21:51;;;;;;;;;2.00;2.00;;;;;19.75;100.00;100134.50;5119770;27;45360;-65
2021/08/06 02:24:16;;;;;;;;;2.50;2.00;;;;;19.75;100.00;100137.16;5100875;27;48569;-65
2021/08/06 02:26:44;;;;;;;;;2.00;2.00;;;;;19.77;100.00;100129.13;5119361;27;45285;-66
2021/08/06 02:29:13;;;;;;;;;2.00;1.75;;;;;19.74;100.00;100124.88;5119876;27;45403;-65
2021/08/06 02:31:42;;;;;;;;;2.00;2.00;;;;;19.77;100.00;100139.72;5119982;27;45356;-66
2021/08/06 02:34:09;;;;;;;;;2.00;1.50;;;;;19.67;100.00;100130.63;5100719;27;47437;-66
2021/08/06 02:36:35;;;;;;;;;1.50;1.50;;;;;19.75;100.00;100139.81;5100262;27;45561;-66
2021/08/06 02:39:01;;;;;;;;;2.00;2.00;;;;;19.72;100.00;100139.16;5119521;27;45408;-65
2021/08/06 02:41:28;;;;;;;;;2.00;1.00;;;;;19.70;100.00;100133.09;5119469;27;45413;-65
2021/08/06 02:43:54;;;;;;;;;2.00;1.00;;;;;19.71;100.00;100138.31;5119334;27;46578;-65
2021/08/06 02:46:19;;;;;;;;;2.00;2.00;;;;;19.69;100.00;100139.31;5119325;27;45538;-65
2021/08/06 02:48:45;;;;;;;;;1.75;1.00;;;;;19.62;100.00;100138.84;5119147;27;45362;-65
2021/08/06 02:51:10;;;;;;;;;2.00;1.25;;;;;19.58;100.00;100146.13;5119744;27;45406;-65
2021/08/06 02:53:36;;;;;;;;;1.00;1.00;;;;;19.62;100.00;100161.81;5119000;27;46427;-65
2021/08/06 02:56:02;;;;;;;;;1.75;1.75;;;;;19.65;100.00;100161.63;5118771;27;45471;-66
2021/08/06 02:58:27;;;;;;;;;1.50;1.25;;;;;19.62;100.00;100165.31;5119059;27;45293;-65
2021/08/06 03:00:53;;;;;;;;;2.00;1.00;;;;;19.58;100.00;100161.16;5119159;27;45321;-65
2021/08/06 03:03:18;;;;;;;;;1.00;1.00;;;;;19.57;100.00;100157.66;5118678;27;46309;-65
2021/08/06 03:05:44;;;;;;;;;1.00;1.00;;;;;19.52;100.00;100151.78;5118730;27;45320;-65
2021/08/06 03:08:10;;;;;;;;;1.50;1.00;;;;;19.53;100.00;100158.81;5118983;27;45385;-65
2021/08/06 03:10:36;;;;;;;;;2.25;1.00;;;;;19.56;100.00;100171.84;5119032;27;45519;-66
2021/08/06 03:13:01;;;;;;;;;1.50;1.50;;;;;19.48;100.00;100165.31;5118545;27;46108;-66
2021/08/06 03:15:27;;;;;;;;;1.00;1.00;;;;;19.51;100.00;100171.25;5118682;27;45321;-65
2021/08/06 03:17:53;;;;;;;;;2.00;1.00;;;;;19.44;100.00;100163.75;5118817;27;45316;-65
2021/08/06 03:20:22;;;;;;;;;1.25;1.00;;;;;19.50;100.00;100174.00;5118905;27;45469;-65
2021/08/06 03:22:49;;;;;;;;;1.75;1.00;;;;;19.49;100.00;100172.31;5118545;27;46431;-65
2021/08/06 03:25:15;;;;;;;;;1.00;1.00;;;;;19.51;100.00;100178.34;5118375;27;45318;-65
2021/08/06 03:31:02;;;;;;;;;1.00;1.00;;;;;19.46;100.00;100172.47;5118819;27;45294;-65
2021/08/06 03:33:28;;;;;;;;;1.00;1.00;;;;;19.39;100.00;100168.47;5118348;27;47476;-65
2021/08/06 03:35:56;;;;;;;;;2.00;2.00;;;;;19.44;100.00;100179.63;5118486;27;45509;-65
2021/08/06 03:38:24;;;;;;;;;2.00;1.00;;;;;19.42;100.00;100186.81;5118528;27;45430;-65
2021/08/06 03:40:51;;;;;;;;;0.00;0.00;;;;;19.42;100.00;100186.81;5118739;27;45484;-65
2021/08/06 03:43:17;;;;;;;;;0.00;0.00;;;;;19.38;100.00;100172.94;5118453;27;45540;-66
2021/08/06 03:45:43;;;;;;;;;0.00;0.00;;;;;19.39;100.00;100173.78;5118377;27;45505;-65
2021/08/06 03:48:09;;;;;;;;;3.25;1.00;;;;;19.36;100.00;100177.47;5119611;27;45470;-65
2021/08/06 03:50:36;;;;;;;;;0.75;0.00;;;;;19.28;100.00;100175.28;5122306;27;45489;-65
2021/08/06 03:53:02;;;;;;;;;1.25;1.00;;;;;19.27;100.00;100173.56;5121697;27;46397;-65
2021/08/06 03:55:28;;;;;;;;;2.00;0.00;;;;;19.25;100.00;100174.63;5122096;27;45411;-65
2021/08/06 04:01:15;;;;;;;;;0.00;0.00;;;;;19.30;100.00;100188.44;5120289;27;45387;-65
2021/08/06 04:03:40;;;;;;;;;1.00;1.00;;;;;19.28;100.00;100185.03;5121892;27;46202;-65
2021/08/06 04:06:05;;;;;;;;;1.00;1.00;;;;;19.15;100.00;100162.84;5121767;27;45427;-65
2021/08/06 04:08:31;;;;;;;;;1.00;1.00;;;;;19.16;100.00;100173.34;5122163;27;45295;-65
2021/08/06 04:10:56;;;;;;;;;3.75;1.00;;;;;19.23;100.00;100195.00;5122102;27;45346;-65
2021/08/06 04:13:21;;;;;;;;;0.00;0.00;;;;;19.02;100.00;100165.38;5121870;27;46252;-65
2021/08/06 04:15:47;;;;;;;;;1.00;1.00;;;;;19.15;100.00;100197.25;5121491;27;45365;-66
2021/08/06 04:18:12;;;;;;;;;2.00;1.50;;;;;19.10;100.00;100192.22;5121789;27;45268;-65
2021/08/06 04:20:37;;;;;;;;;0.00;0.00;;;;;19.06;100.00;100188.06;5122121;27;45354;-65
2021/08/06 04:23:03;;;;;;;;;0.75;0.75;;;;;19.12;100.00;100190.34;5121571;27;46292;-65
2021/08/06 04:25:29;;;;;;;;;1.00;0.00;;;;;19.09;100.00;100201.13;5121164;27;45282;-65
2021/08/06 04:31:16;;;;;;;;;2.00;1.00;;;;;19.08;100.00;100210.00;5121582;27;45322;-65
2021/08/06 04:33:41;;;;;;;;;0.00;0.00;;;;;19.03;100.00;100205.91;5121440;27;46518;-65
2021/08/06 04:36:06;;;;;;;;;0.00;0.00;;;;;19.03;100.00;100212.06;5121194;27;45356;-65
2021/08/06 04:38:32;;;;;;;;;1.00;1.00;;;;;19.00;100.00;100214.00;5121479;27;45287;-65
2021/08/06 04:40:57;;;;;;;;;1.00;0.50;;;;;18.98;100.00;100216.75;5121454;27;45299;-65
2021/08/06 04:43:23;;;;;;;;;1.00;0.50;;;;;18.93;100.00;100221.44;5121293;27;46147;-65
2021/08/06 04:45:49;;;;;;;;;1.75;1.00;;;;;18.96;100.00;100235.34;5120893;27;45211;-65
2021/08/06 04:48:18;;;;;;;;;1.00;1.00;;;;;18.96;100.00;100242.44;5121028;27;45274;-65
2021/08/06 04:50:44;;;;;;;;;3.75;1.00;;;;;18.91;100.00;100234.78;5121579;27;45354;-65
2021/08/06 04:53:09;;;;;;;;;1.50;1.50;;;;;18.90;100.00;100213.69;5121160;27;45637;-65
2021/08/06 04:55:35;;;;;;;;;2.25;2.00;;;;;18.90;100.00;100221.63;5121055;27;45325;-65
2021/08/06 05:01:22;;;;;;;;;1.00;1.00;;;;;18.87;100.00;100221.81;5120143;27;45722;-66
2021/08/06 05:03:47;;;;;;;;;0.25;0.25;;;;;18.90;100.00;100237.50;5120608;27;46468;-66
2021/08/06 05:06:14;;;;;;;;;0.25;0.25;;;;;18.94;100.00;100246.97;5120666;27;45394;-66
2021/08/06 05:08:42;;;;;;;;;1.00;1.00;;;;;18.94;100.00;100237.22;5120799;27;45390;-66
2021/08/06 05:11:07;;;;;;;;;1.00;1.00;;;;;18.97;100.00;100241.50;5121214;27;45294;-66
2021/08/06 05:13:33;;;;;;;;;0.75;0.00;;;;;18.92;100.00;100243.56;5120465;27;46142;-66
2021/08/06 05:15:58;;;;;;;;;0.00;0.00;;;;;18.93;100.00;100255.84;5120849;27;45334;-66
2021/08/06 05:18:23;;;;;;;;;1.00;0.75;;;;;18.89;100.00;100234.00;5121041;27;45262;-66
2021/08/06 05:20:49;;;;;;;;;0.50;0.50;;;;;18.89;100.00;100241.94;5121165;27;45274;-66
2021/08/06 05:23:14;;;;;;;;;2.25;1.00;;;;;18.88;100.00;100247.31;5119774;27;45345;-66
2021/08/06 05:25:40;;;;;;;;;1.25;1.00;;;;;18.90;100.00;100246.28;5120543;27;45254;-66
2021/08/06 05:31:26;;;;;;;;;2.00;1.00;;;;;18.95;100.00;100224.84;5120685;27;45342;-66
2021/08/06 05:33:52;;;;;;;;;1.50;0.00;;;;;18.90;100.00;100218.97;5120016;27;46633;-65
2021/08/06 05:36:17;;;;;;;;;1.00;0.25;;;;;18.99;100.00;100244.91;5120484;27;45333;-66
2021/08/06 05:38:43;;;;;;;;;0.00;0.00;;;;;19.03;100.00;100246.47;5120219;27;45312;-66
2021/08/06 05:41:08;;;;;;;;;0.00;0.00;;;;;19.07;100.00;100252.44;5120296;27;45381;-65
2021/08/06 05:46:55;;;;;;;;;1.00;0.00;;;;;19.16;100.00;100249.25;5119883;27;45292;-66
2021/08/06 05:49:20;;;;;;;;;1.00;1.00;;;;;19.15;100.00;100240.44;5120203;27;45348;-65
2021/08/06 05:51:46;;;;;;;;;0.75;0.75;;;;;19.17;100.00;100243.84;5120136;27;45317;-66
2021/08/06 05:54:11;;;;;;;;;0.00;0.00;;;;;19.11;100.00;100230.13;5119785;27;47039;-66
2021/08/06 05:56:36;;;;;;;;;0.50;0.50;;;;;19.12;100.00;100229.19;5119916;27;45290;-66
2021/08/06 05:59:02;;;;;;;;;0.00;0.00;;;;;19.17;100.00;100249.16;5119883;27;45368;-66
2021/08/06 06:01:27;;;;;;;;;1.75;0.25;;;;;19.19;100.00;100243.75;5120153;27;45625;-66
2021/08/06 06:03:55;;;;;;;;;1.75;1.00;;;;;19.16;100.00;100239.50;5101098;27;46205;-65
2021/08/06 06:06:21;;;;;;;;;0.25;0.00;;;;;19.21;100.00;100242.72;5119932;27;45313;-66
2021/08/06 06:08:46;;;;;;;;;1.75;0.25;;;;;19.20;100.00;100241.03;5120084;27;45215;-65
2021/08/06 06:11:11;;;;;;;;;0.75;0.00;;;;;19.26;100.00;100250.44;5100951;27;45369;-66
2021/08/06 06:16:58;;;;;;;;;1.00;0.00;;;;;19.38;100.00;100264.72;5119771;27;45547;-66
2021/08/06 06:19:24;;;;;;;;;0.50;0.00;;;;;19.39;100.00;100269.94;5119476;27;45291;-66
2021/08/06 06:21:49;;;;;;;;;1.00;0.00;;;;;19.42;100.00;100269.75;5120170;27;45339;-65
2021/08/06 06:24:14;;;;;;;;;1.00;0.00;;;;;19.45;100.00;100258.97;5119249;27;47055;-66
2021/08/06 06:26:40;;;;;;;;;0.00;0.00;;;;;19.54;100.00;100268.22;5119288;27;45310;-66
2021/08/06 06:29:05;;;;;;;;;1.00;0.00;;;;;19.55;100.00;100264.63;5119123;27;45375;-66
2021/08/06 06:31:31;;;;;;;;;0.25;0.25;;;;;19.69;100.00;100263.81;5119770;27;45248;-66
2021/08/06 06:33:56;;;;;;;;;1.00;0.25;;;;;19.70;100.00;100274.34;5119217;27;46141;-65
2021/08/06 06:36:22;;;;;;;;;0.50;0.50;;;;;19.71;100.00;100265.44;5119012;27;45281;-66
2021/08/06 06:38:47;;;;;;;;;0.00;0.00;;;;;19.69;100.00;100266.44;5119613;27;45376;-66
2021/08/06 06:41:13;;;;;;;;;0.00;0.00;;;;;19.66;100.00;100251.59;5119705;27;45403;-66
2021/08/06 06:46:59;;;;;;;;;0.00;0.00;;;;;19.78;100.00;100266.78;5118936;27;45388;-66
2021/08/06 06:49:25;;;;;;;;;1.00;0.00;;;;;19.78;100.00;100271.22;5119135;27;45382;-67
2021/08/06 06:51:50;;;;;;;;;1.00;1.00;;;;;19.80;100.00;100283.44;5119544;27;45254;-67
2021/08/06 06:54:15;;;;;;;;;1.50;0.00;;;;;19.77;100.00;100283.59;5119112;27;46614;-66
2021/08/06 06:56:41;;;;;;;;;1.00;0.00;;;;;19.81;100.00;100292.22;5119081;27;45305;-67
2021/08/06 06:59:06;;;;;;;;;1.00;0.25;;;;;19.66;100.00;100264.00;5118949;27;45240;-66
2021/08/06 07:01:32;;;;;;;;;1.25;1.00;;;;;19.72;100.00;100293.63;5118710;27;45204;-67
2021/08/06 07:03:57;;;;;;;;;1.00;0.75;;;;;19.79;100.00;100288.81;5118621;27;46264;-66
2021/08/06 07:06:22;;;;;;;;;0.75;0.50;;;;;19.77;100.00;100285.41;5118565;27;45409;-67
2021/08/06 07:08:48;;;;;;;;;0.00;0.00;;;;;19.85;100.00;100312.28;5100333;27;45450;-66
2021/08/06 07:11:14;;;;;;;;;2.00;0.50;;;;;19.80;100.00;100291.38;5119056;27;45418;-67
2021/08/06 07:17:01;;;;;;;;;0.00;0.00;;;;;19.83;100.00;100295.63;5118697;27;45241;-65
2021/08/06 07:19:26;;;;;;;;;2.50;1.00;;;;;19.92;100.00;100299.53;5118840;27;45301;-66
2021/08/06 07:21:51;;;;;;;;;1.50;0.00;;;;;19.89;100.00;100290.81;5119198;27;45214;-66
2021/08/06 07:24:17;;;;;;;;;0.00;0.00;;;;;19.92;100.00;100305.69;5118289;27;45306;-65
2021/08/06 07:26:43;;;;;;;;;1.00;0.50;;;;;19.95;100.00;100315.25;5118784;27;45300;-66
2021/08/06 07:29:08;;;;;;;;;3.00;1.00;;;;;19.94;100.00;100313.56;5118740;27;45310;-65
2021/08/06 07:31:34;;;;;;;;;0.00;0.00;;;;;19.92;100.00;100316.28;5118678;27;45503;-65
2021/08/06 07:33:59;;;;;;;;;1.00;1.00;;;;;20.01;100.00;100322.84;5118232;27;46480;-65
2021/08/06 07:36:25;;;;;;;;;0.75;0.25;;;;;20.04;100.00;100309.41;5118179;27;45404;-65
2021/08/06 07:38:51;;;;;;;;;2.75;1.00;;;;;20.06;100.00;100312.81;5118640;27;45327;-66
2021/08/06 07:41:16;;;;;;;;;2.00;0.00;;;;;20.09;100.00;100325.88;5118508;27;45300;-65
2021/08/06 07:47:03;;;;;;;;;1.75;0.75;;;;;20.07;100.00;100325.09;5118107;27;45443;-66
2021/08/06 07:49:29;;;;;;;;;0.00;0.00;;;;;20.03;100.00;100310.34;5118345;27;45879;-66
2021/08/06 07:51:54;;;;;;;;;1.00;0.00;;;;;20.08;100.00;100324.16;5118693;27;45411;-66
2021/08/06 07:54:19;;;;;;;;;1.00;0.50;;;;;20.14;100.00;100337.91;5117992;27;45425;-66
2021/08/06 07:56:45;;;;;;;;;0.25;0.00;;;;;20.15;100.00;100346.72;5118252;27;45357;-66
2021/08/06 08:02:32;;;;;;;;;0.50;0.00;;;;;20.16;100.00;100346.63;5116518;27;45378;-66
2021/08/06 08:04:57;;;;;;;;;0.00;0.00;;;;;20.10;100.00;100341.66;5118049;27;46202;-66
2021/08/06 08:07:23;;;;;;;;;1.00;0.00;;;;;20.16;100.00;100346.63;5117804;27;45348;-66
2021/08/06 08:09:48;;;;;;;;;1.00;0.00;;;;;20.18;100.00;100352.69;5118023;27;45288;-66
2021/08/06 08:12:14;;;;;;;;;1.00;0.25;;;;;20.15;100.00;100333.47;5118428;27;45437;-68
2021/08/06 08:14:39;;;;;;;;;0.00;0.00;;;;;20.33;100.00;100336.78;5117921;27;46061;-68
2021/08/06 08:17:05;;;;;;;;;1.25;0.00;;;;;20.47;100.00;100356.25;5117984;27;45415;-68
2021/08/06 08:19:31;;;;;;;;;0.00;0.00;;;;;20.44;100.00;100339.66;5118146;27;45283;-68
2021/08/06 08:21:56;;;;;;;;;0.00;0.00;;;;;20.52;100.00;100347.16;5118090;27;45364;-68
2021/08/06 08:24:21;;;;;;;;;0.00;0.00;;;;;20.57;100.00;100345.06;5117526;27;46884;-68
2021/08/06 08:26:47;;;;;;;;;0.75;0.00;;;;;20.60;100.00;100337.78;5117642;27;45473;-68
2021/08/06 08:32:35;;;;;;;;;0.00;0.00;;;;;20.76;100.00;100343.81;5117906;27;45402;-67
2021/08/06 08:35:01;;;;;;;;;1.25;1.00;;;;;20.82;100.00;100337.28;5118441;27;47099;-68
2021/08/06 08:37:26;;;;;;;;;0.50;0.50;;;;;20.87;100.00;100337.84;5121264;27;45566;-67
2021/08/06 08:39:52;;;;;;;;;1.75;0.00;;;;;21.02;100.00;100362.53;5121239;27;45343;-67
2021/08/06 08:42:18;;;;;;;;;1.00;1.00;;;;;20.98;100.00;100348.63;5121563;27;45387;-67
2021/08/06 08:44:44;;;;;;;;;1.00;0.00;;;;;20.93;100.00;100340.09;5121002;27;46306;-67
2021/08/06 08:47:10;;;;;;;;;0.00;0.00;;;;;20.95;100.00;100355.94;5120921;27;45514;-67
2021/08/06 08:49:37;;;;;;;;;0.00;0.00;;;;;20.94;100.00;100355.06;5121228;27;45338;-67
2021/08/06 08:52:03;;;;;;;;;1.50;0.00;;;;;20.90;100.00;100353.56;5121225;27;45526;-67
2021/08/06 08:54:29;;;;;;;;;0.75;0.00;;;;;20.94;100.00;100362.19;5120773;27;47775;-67
2021/08/06 08:56:55;;;;;;;;;1.00;0.75;;;;;20.95;100.00;100358.59;5120753;27;45326;-67
2021/08/06 09:02:44;;;;;;;;;0.75;0.00;;;;;20.93;100.00;100361.34;5120510;27;45437;-66
2021/08/06 09:05:14;;;;;;;;;0.00;0.00;;;;;21.01;100.00;100363.50;5120661;27;46471;-66
2021/08/06 09:07:40;;;;;;;;;1.00;1.00;;;;;21.08;100.00;100367.50;5120504;27;45437;-67
2021/08/06 09:10:09;;;;;;;;;0.00;0.00;;;;;21.17;100.00;100379.31;5120735;27;45329;-67
2021/08/06 09:12:48;;;;;;;;;1.00;0.00;;;;;21.28;100.00;100376.88;5120844;27;45429;-67
2021/08/06 09:15:14;;;;;;;;;0.50;0.50;;;;;21.36;100.00;100371.91;5120485;27;46653;-67
2021/08/06 09:17:39;;;;;;;;;1.00;1.00;;;;;21.32;100.00;100349.16;5120362;27;45445;-67
2021/08/06 09:20:09;;;;;;;;;1.25;0.50;;;;;21.44;100.00;100352.78;5120535;27;45362;-67
2021/08/06 09:22:39;;;;;;;;;1.00;0.25;;;;;21.66;100.00;100383.16;5120675;27;45365;-67
2021/08/06 09:25:06;;;;;;;;;2.00;1.00;;;;;21.66;100.00;100382.31;5120283;27;45276;-67
2021/08/06 09:27:37;;;;;;;;;1.00;0.00;;;;;21.68;100.00;100380.41;5101649;27;45511;-68
2021/08/06 09:30:06;;;;;;;;;0.00;0.00;;;;;21.60;100.00;100364.13;5120500;27;45456;-67
2021/08/06 09:32:54;;;;;;;;;0.00;0.00;;;;;21.79;100.00;100393.84;5120798;27;45400;-67
2021/08/06 09:35:25;;;;;;;;;0.25;0.25;;;;;21.74;100.00;100387.16;5119961;27;45337;-68
2021/08/06 09:37:52;;;;;;;;;0.00;0.00;;;;;21.70;100.00;100383.81;5120369;27;45459;-67
2021/08/06 09:40:23;;;;;;;;;1.00;1.00;;;;;21.66;100.00;100377.84;5120133;27;45342;-67
2021/08/06 09:43:00;;;;;;;;;2.00;0.25;;;;;21.78;100.00;100389.50;5120262;27;45369;-67
2021/08/06 09:45:37;;;;;;;;;1.00;1.00;;;;;21.89;100.00;100383.44;5119326;27;46586;-67
2021/08/06 09:48:03;;;;;;;;;1.75;1.00;;;;;22.00;100.00;100386.25;5120011;27;45269;-68
2021/08/06 09:50:39;;;;;;;;;0.75;0.75;;;;;22.24;100.00;100373.97;5120325;27;45473;-68
2021/08/06 09:53:06;;;;;;;;;0.00;0.00;;;;;22.46;100.00;100380.47;5120380;27;45460;-67
2021/08/06 09:55:46;;;;;;;;;0.50;0.25;;;;;22.69;100.00;100392.19;5119706;27;46282;-67
2021/08/06 09:58:19;;;;;;;;;0.75;0.50;;;;;22.75;100.00;100381.94;5119741;27;45344;-67
2021/08/06 10:00:48;;;;;;;;;0.00;0.00;;;;;22.71;100.00;100380.47;5120174;27;45275;-67
2021/08/06 10:03:33;;;;;;;;;1.00;1.00;;;;;22.86;100.00;100379.41;5119906;27;45420;-66
2021/08/06 10:06:07;;;;;;;;;0.00;0.00;;;;;23.09;100.00;100377.78;5119487;27;47345;-66
2021/08/06 10:08:34;;;;;;;;;1.00;1.00;;;;;23.12;100.00;100374.03;5119841;27;45378;-67
2021/08/06 10:10:59;;;;;;;;;0.00;0.00;;;;;23.07;100.00;100385.00;5120001;27;45341;-66
2021/08/06 10:13:26;;;;;;;;;0.00;0.00;;;;;22.99;100.00;100382.03;5119647;27;45454;-66
2021/08/06 10:15:51;;;;;;;;;0.50;0.50;;;;;22.87;100.00;100381.13;5119696;27;46717;-67
2021/08/06 10:18:17;;;;;;;;;0.00;0.00;;;;;22.81;100.00;100394.84;5119664;27;45389;-67
2021/08/06 10:20:46;;;;;;;;;0.75;0.75;;;;;22.74;100.00;100395.34;5119662;27;45330;-67
2021/08/06 10:23:12;;;;;;;;;0.00;0.00;;;;;22.53;100.00;100393.25;5119783;27;45348;-68
2021/08/06 10:25:37;;;;;;;;;0.00;0.00;;;;;22.40;100.00;100397.69;5119350;27;47183;-67
2021/08/06 10:28:04;;;;;;;;;0.00;0.00;;;;;22.43;100.00;100402.84;5119234;27;45232;-67
2021/08/06 10:30:35;;;;;;;;;1.00;0.00;;;;;22.58;100.00;100395.56;5119321;27;45307;-67
2021/08/06 10:33:27;;;;;;;;;0.50;0.00;;;;;22.62;100.00;100394.41;5119790;27;45319;-66
2021/08/06 10:36:03;;;;;;;;;0.25;0.25;;;;;22.75;100.00;100381.94;5119529;27;46221;-66
2021/08/06 10:38:43;;;;;;;;;0.00;0.00;;;;;23.10;100.00;100390.13;5119365;27;45400;-67
2021/08/06 10:41:19;;;;;;;;;0.00;0.00;;;;;23.51;100.00;100394.22;5119584;27;45318;-66
2021/08/06 10:43:45;;;;;;;;;2.00;0.25;;;;;;;;5119254;27;45428;-66
2021/08/06 10:46:12;;;;;;;;;2.00;0.00;;;;;23.48;100.00;100405.97;5118789;27;45510;-66
2021/08/06 10:48:39;;;;;;;;;0.50;0.50;;;;;23.28;100.00;100395.06;5118892;27;45375;-66
2021/08/06 10:51:16;;;;;;;;;0.50;0.00;;;;;23.05;100.00;100396.72;5119179;27;45291;-66
2021/08/06 10:53:42;;;;;;;;;0.25;0.25;;;;;22.77;100.00;100389.81;5119129;27;45573;-66
2021/08/06 10:56:35;;;;;;;;;1.00;0.75;;;;;22.54;100.00;100405.59;5119137;27;46316;-66
2021/08/06 10:59:03;;;;;;;;;0.75;0.25;;;;;22.45;100.00;100392.06;5115381;27;45521;-66
2021/08/06 11:01:28;;;;;;;;;0.25;0.25;;;;;22.59;100.00;100408.78;5118708;27;45270;-67
2021/08/06 11:03:56;;;;;;;;;0.75;0.75;;;;;22.75;100.00;100392.59;5119223;27;45428;-67
2021/08/06 11:06:38;;;;;;;;;0.75;0.50;;;;;22.98;100.00;100398.13;5118606;27;47473;-68
2021/08/06 11:09:08;;;;;;;;;0.75;0.00;;;;;23.02;100.00;100397.78;5118909;27;45480;-67
2021/08/06 11:11:42;;;;;;;;;0.00;0.00;;;;;23.04;100.00;100395.88;5119208;27;45362;-67
2021/08/06 11:14:08;;;;;;;;;0.00;0.00;;;;;23.16;100.00;100416.31;5100630;27;45469;-66
2021/08/06 11:16:34;;;;;;;;;0.75;0.75;;;;;23.46;100.00;100410.56;5118637;27;46716;-66
2021/08/06 11:19:00;;;;;;;;;0.75;0.00;;;;;24.10;100.00;100396.94;5118463;27;45369;-66
2021/08/06 11:21:38;;;;;;;;;1.50;1.00;;;;;25.09;100.00;100401.72;5118796;27;45242;-67
2021/08/06 11:24:03;;;;;;;;;0.00;0.00;;;;;25.59;100.00;100402.97;5118885;27;45353;-66
2021/08/06 11:26:29;;;;;;;;;2.00;1.50;;;;;25.88;100.00;100390.72;5118634;27;46756;-66
2021/08/06 11:28:56;;;;;;;;;1.00;0.25;;;;;26.23;100.00;100401.13;5118499;27;45409;-66
2021/08/06 11:31:22;;;;;;;;;0.00;0.00;;;;;26.08;100.00;100390.88;5118509;27;45418;-66
2021/08/06 11:34:04;;;;;;;;;0.75;0.25;;;;;25.83;100.00;100400.97;5118767;27;45457;-66
2021/08/06 11:36:30;;;;;;;;;0.00;0.00;;;;;25.63;100.00;100405.25;5118709;27;46500;-66
2021/08/06 11:39:02;;;;;;;;;0.00;0.00;;;;;25.53;100.00;100395.44;5118607;27;45433;-66
2021/08/06 11:41:28;;;;;;;;;1.00;0.00;;;;;25.33;100.00;100394.38;5118404;27;45275;-66
2021/08/06 11:43:53;;;;;;;;;0.00;0.00;;;;;25.34;100.00;100377.38;5118705;27;45269;-66
2021/08/06 11:46:19;;;;;;;;;1.00;0.75;;;;;25.56;100.00;100390.69;5118301;27;45301;-67
2021/08/06 11:48:53;;;;;;;;;0.00;0.00;;;;;25.61;100.00;100401.03;5118092;27;45349;-66
2021/08/06 11:51:19;;;;;;;;;0.00;0.00;;;;;25.48;100.00;100387.78;5118298;27;45310;-67
2021/08/06 11:53:45;;;;;;;;;0.75;0.25;;;;;25.38;100.00;100391.38;5118468;27;45446;-66
2021/08/06 11:56:18;;;;;;;;;0.75;0.00;;;;;25.80;100.00;100395.00;5118108;27;46338;-67
2021/08/06 11:58:44;;;;;;;;;0.00;0.00;;;;;26.15;100.00;100389.38;5118053;27;45592;-66
2021/08/06 12:01:21;;;;;;;;;2.00;1.00;;;;;26.02;100.00;100404.75;5118112;27;45358;-67
2021/08/06 12:03:51;;;;;;;;;1.00;1.00;;;;;26.24;100.00;100385.91;5118282;27;45559;-66
2021/08/06 12:06:19;;;;;;;;;1.75;1.25;;;;;26.85;100.00;100392.19;5117798;27;47246;-66
2021/08/06 12:08:46;;;;;;;;;1.00;0.00;;;;;26.73;100.00;100389.75;5118316;27;45527;-66
2021/08/06 12:11:17;;;;;;;;;0.00;0.00;;;;;26.18;100.00;100389.97;5121559;27;45291;-66